Time;durP1;ratioP1;P1;durP2;ratioP2;P2;SDS_P1;SDS_P2;PMS_P1;PMS_P2;Temp;Humidity;BMP_temperature;BMP_pressure;BME280_temperature;BME280_humidity;BME280_pressure;Samples;Min_cycle;Max_cycle;Signal;HPM_P1;HPM_P2
2022/11/17 00:01:18;;;;;;;7.78;3.15;;;10.20;99.90;;;;;;5108859;28;20024;-75
2022/11/17 00:03:48;;;;;;;13.20;4.07;;;10.20;99.90;;;;;;5086957;28;20086;-75
2022/11/17 00:06:14;;;;;;;15.77;3.80;;;10.20;99.90;;;;;;5090760;28;20445;-75
2022/11/17 00:08:40;;;;;;;13.95;3.80;;;10.20;99.90;;;;;;5094108;28;20023;-75
2022/11/17 00:11:06;;;;;;;11.98;4.00;;;10.20;99.90;;;;;;5100529;28;20020;-73
2022/11/17 00:16:17;;;;;;;13.07;3.83;;;10.20;99.90;;;;;;5086818;28;20754;-74
2022/11/17 00:21:28;;;;;;;11.73;3.90;;;10.30;99.90;;;;;;5090247;28;20055;-74
2022/11/17 00:23:54;;;;;;;13.98;3.58;;;10.30;99.90;;;;;;5090754;28;20015;-75
2022/11/17 00:26:25;;;;;;;14.27;3.35;;;10.20;99.90;;;;;;5091679;28;20028;-75
2022/11/17 00:28:55;;;;;;;11.15;3.83;;;10.20;99.90;;;;;;5092802;28;20064;-75
2022/11/17 00:34:06;;;;;;;7.45;2.83;;;10.20;99.90;;;;;;5093142;28;20031;-74
2022/11/17 00:36:37;;;;;;;12.65;2.95;;;10.30;99.90;;;;;;5092692;28;20028;-73
2022/11/17 00:39:02;;;;;;;7.05;2.80;;;10.20;99.90;;;;;;5088038;28;20257;-74
2022/11/17 00:41:28;;;;;;;11.48;3.40;;;10.20;99.90;;;;;;5096592;28;20464;-74
2022/11/17 00:43:54;;;;;;;10.02;2.80;;;10.20;99.90;;;;;;5094121;28;20440;-74
2022/11/17 00:46:19;;;;;;;8.70;2.90;;;10.20;99.90;;;;;;5093769;28;20016;-74
2022/11/17 00:48:45;;;;;;;7.88;2.78;;;10.30;99.90;;;;;;5076851;28;20035;-73
2022/11/17 00:51:10;;;;;;;7.05;2.90;;;10.30;99.90;;;;;;5095827;28;20051;-74
2022/11/17 00:53:36;;;;;;;9.93;3.45;;;10.30;99.90;;;;;;5094060;28;20345;-74
2022/11/17 00:56:01;;;;;;;10.95;3.30;;;10.30;99.90;;;;;;5086698;28;20114;-74
2022/11/17 00:58:27;;;;;;;8.73;3.10;;;10.30;99.90;;;;;;5089101;28;20036;-73
2022/11/17 01:00:52;;;;;;;9.15;3.17;;;10.30;99.90;;;;;;5092022;28;20118;-73
2022/11/17 01:03:18;;;;;;;12.20;2.83;;;10.30;99.90;;;;;;5101121;28;20055;-73
2022/11/17 01:05:43;;;;;;;10.82;3.40;;;10.30;99.90;;;;;;5090900;28;20074;-74
2022/11/17 01:08:09;;;;;;;9.77;3.70;;;10.40;99.90;;;;;;5093022;28;20024;-74
2022/11/17 01:10:35;;;;;;;11.10;3.20;;;10.40;99.90;;;;;;5092579;28;20028;-74
2022/11/17 01:13:01;;;;;;;9.73;4.30;;;10.40;99.90;;;;;;5101815;28;20027;-73
2022/11/17 01:15:26;;;;;;;9.23;3.70;;;10.40;99.90;;;;;;5087185;28;20099;-74
2022/11/17 01:17:52;;;;;;;11.60;4.15;;;10.40;99.90;;;;;;5101859;28;20043;-74
2022/11/17 01:20:17;;;;;;;11.32;3.97;;;10.40;99.90;;;;;;5086392;28;20032;-74
2022/11/17 01:22:43;;;;;;;14.23;3.70;;;10.40;99.90;;;;;;5099899;28;20474;-73
2022/11/17 01:25:09;;;;;;;8.68;3.53;;;10.40;99.90;;;;;;5091070;28;20020;-74
2022/11/17 01:27:34;;;;;;;8.57;3.53;;;10.40;99.90;;;;;;5093203;28;20024;-74
2022/11/17 01:30:00;;;;;;;6.25;3.25;;;10.40;99.90;;;;;;5091586;28;20020;-74
2022/11/17 01:32:26;;;;;;;11.80;3.70;;;10.50;99.90;;;;;;5096232;28;20046;-74
2022/11/17 01:34:51;;;;;;;5.50;2.47;;;10.50;99.90;;;;;;5089879;28;20066;-74
2022/11/17 01:37:20;;;;;;;5.35;2.58;;;10.50;99.90;;;;;;5091900;28;20467;-73
2022/11/17 01:39:49;;;;;;;5.70;2.60;;;10.50;99.90;;;;;;5092223;28;20016;-74
2022/11/17 01:42:16;;;;;;;11.20;3.03;;;10.50;99.90;;;;;;5097206;28;20020;-74
2022/11/17 01:45:14;;;;;;;8.73;3.17;;;10.50;99.90;;;;;;5096916;28;20020;-74
2022/11/17 01:47:53;;;;;;;8.63;2.65;;;10.50;99.90;;;;;;5095285;28;20456;-73
2022/11/17 01:50:33;;;;;;;8.35;3.25;;;10.50;99.90;;;;;;5094727;28;20047;-74
2022/11/17 01:53:01;;;;;;;7.93;2.97;;;10.50;99.90;;;;;;5097767;28;20031;-75
2022/11/17 01:55:40;;;;;;;6.35;3.15;;;10.50;99.90;;;;;;5110366;28;20012;-74
2022/11/17 01:58:14;;;;;;;6.95;3.08;;;10.60;99.90;;;;;;5096114;28;20035;-74
2022/11/17 02:00:40;;;;;;;6.47;3.28;;;10.60;99.90;;;;;;5096984;28;20024;-74
2022/11/17 02:03:06;;;;;;;9.00;2.95;;;10.60;99.90;;;;;;5107816;28;20051;-73
2022/11/17 02:05:56;;;;;;;7.18;3.13;;;10.60;99.90;;;;;;5095875;28;20031;-74
2022/11/17 02:08:26;;;;;;;4.35;2.67;;;10.60;99.90;;;;;;5096059;28;20089;-74
2022/11/17 02:10:52;;;;;;;9.63;3.08;;;10.60;99.90;;;;;;5095596;28;20061;-74
2022/11/17 02:13:20;;;;;;;6.60;3.20;;;10.70;99.90;;;;;;5096329;28;20479;-74
2022/11/17 02:15:46;;;;;;;6.93;3.10;;;10.70;99.90;;;;;;5096135;28;20409;-74
2022/11/17 02:18:14;;;;;;;5.38;2.67;;;10.70;99.90;;;;;;5094752;28;20111;-74
2022/11/17 02:21:10;;;;;;;5.80;2.75;;;10.70;99.90;;;;;;5093042;28;20017;-74
2022/11/17 02:23:54;;;;;;;5.00;2.83;;;10.70;99.90;;;;;;5096290;28;20451;-74
2022/11/17 02:26:36;;;;;;;7.30;3.55;;;10.70;99.90;;;;;;5090872;28;20031;-74
2022/11/17 02:29:26;;;;;;;7.38;2.63;;;10.70;99.90;;;;;;5089098;28;20509;-74
2022/11/17 02:32:08;;;;;;;8.30;3.03;;;10.80;99.90;;;;;;5105860;28;20119;-74
2022/11/17 02:34:42;;;;;;;8.13;3.80;;;10.70;99.90;;;;;;5095873;28;20016;-74
2022/11/17 02:37:32;;;;;;;9.93;3.95;;;10.70;99.90;;;;;;5092596;28;20387;-74
2022/11/17 02:40:23;;;;;;;9.15;3.80;;;10.80;99.90;;;;;;5087143;28;20032;-74
2022/11/17 02:46:17;;;;;;;6.38;3.75;;;10.90;99.90;;;;;;5096327;28;20142;-74
2022/11/17 02:48:54;;;;;;;6.35;4.15;;;10.90;99.90;;;;;;5061773;28;20036;-74
2022/11/17 02:51:23;;;;;;;8.85;4.47;;;10.80;99.90;;;;;;5093168;28;20020;-74
2022/11/17 02:53:55;;;;;;;10.43;5.00;;;10.90;99.90;;;;;;5095598;28;20103;-74
2022/11/17 02:56:21;;;;;;;11.13;4.85;;;10.90;99.90;;;;;;5095411;28;20035;-74
2022/11/17 02:58:50;;;;;;;11.50;5.32;;;10.90;99.90;;;;;;5093554;28;20028;-74
2022/11/17 03:01:30;;;;;;;11.70;5.05;;;10.90;99.90;;;;;;5096702;28;20031;-74
2022/11/17 03:04:10;;;;;;;11.60;5.32;;;10.90;99.90;;;;;;5089356;28;20096;-74
2022/11/17 03:06:53;;;;;;;12.52;5.10;;;11.00;99.90;;;;;;5091340;28;20032;-74
2022/11/17 03:09:23;;;;;;;10.30;4.53;;;11.00;99.90;;;;;;5094516;28;20032;-74
2022/11/17 03:12:07;;;;;;;11.48;5.10;;;11.00;99.90;;;;;;5095348;28;20020;-74
2022/11/17 03:15:08;;;;;;;14.15;5.45;;;11.00;99.90;;;;;;5096139;28;20024;-74
2022/11/17 03:17:55;;;;;;;10.07;4.80;;;11.00;99.90;;;;;;5092799;28;20028;-74
2022/11/17 03:20:41;;;;;;;11.98;5.00;;;11.00;99.90;;;;;;5092832;28;20477;-74
2022/11/17 03:23:12;;;;;;;13.38;5.30;;;11.00;99.90;;;;;;5079742;28;20020;-75
2022/11/17 03:25:44;;;;;;;7.03;4.20;;;11.00;99.90;;;;;;5100341;28;20050;-74
2022/11/17 03:28:10;;;;;;;;;;;11.00;99.90;;;;;;5088653;28;20028;-75
2022/11/17 03:30:40;;;;;;;10.68;3.97;;;11.00;99.90;;;;;;5097595;28;19912;-72
2022/11/17 03:33:14;;;;;;;9.85;4.28;;;11.00;99.90;;;;;;5094912;28;20032;-75
2022/11/17 03:35:43;;;;;;;10.45;4.22;;;11.00;99.90;;;;;;5090537;28;20031;-73
2022/11/17 03:38:12;;;;;;;13.77;4.38;;;11.00;99.90;;;;;;5093734;28;20047;-73
2022/11/17 03:40:42;;;;;;;7.68;4.05;;;11.00;99.90;;;;;;5094099;28;20097;-74
2022/11/17 03:43:11;;;;;;;11.27;3.85;;;11.00;99.90;;;;;;5089697;28;20016;-74
2022/11/17 03:45:41;;;;;;;10.77;4.10;;;11.00;99.90;;;;;;5086384;28;20393;-74
2022/11/17 03:48:15;;;;;;;8.95;3.47;;;11.10;99.90;;;;;;5089074;28;20028;-73
2022/11/17 03:50:50;;;;;;;13.93;3.83;;;11.10;99.90;;;;;;5091790;28;20020;-74
2022/11/17 03:53:16;;;;;;;7.57;3.38;;;11.10;99.90;;;;;;5094594;28;20027;-74
2022/11/17 03:56:05;;;;;;;7.28;3.08;;;11.10;99.90;;;;;;5094001;28;20364;-75
2022/11/17 03:58:36;;;;;;;9.57;2.80;;;11.20;99.90;;;;;;5109345;28;20114;-74
2022/11/17 04:01:04;;;;;;;9.05;3.05;;;11.20;99.90;;;;;;5078060;28;20012;-74
2022/11/17 04:03:33;;;;;;;6.63;2.70;;;11.20;99.90;;;;;;5093126;28;20026;-74
2022/11/17 04:06:00;;;;;;;9.48;3.78;;;11.20;99.90;;;;;;5093047;28;20456;-74
2022/11/17 04:08:29;;;;;;;8.50;2.90;;;11.30;99.90;;;;;;5105782;28;20028;-75
2022/11/17 04:16:26;;;;;;;6.32;2.63;;;11.30;99.90;;;;;;5086978;28;20035;-73
2022/11/17 04:18:51;;;;;;;7.50;2.58;;;11.30;99.90;;;;;;5093998;28;20020;-73
2022/11/17 04:21:17;;;;;;;7.60;2.63;;;11.40;99.90;;;;;;5093884;28;20024;-74
2022/11/17 04:23:42;;;;;;;6.18;2.65;;;11.40;99.90;;;;;;5084726;28;20103;-74
2022/11/17 04:28:53;;;;;;;8.80;2.80;;;11.40;99.90;;;;;;5100638;28;20030;-74
2022/11/17 04:31:21;;;;;;;5.80;2.38;;;11.40;99.90;;;;;;5093377;28;20044;-73
2022/11/17 04:33:49;;;;;;;7.93;2.70;;;11.40;99.90;;;;;;5079866;28;20080;-73
2022/11/17 04:36:21;;;;;;;5.05;1.98;;;11.50;99.90;;;;;;5088629;28;20039;-73
2022/11/17 04:38:49;;;;;;;6.50;2.20;;;11.50;99.90;;;;;;5089950;28;20028;-74
2022/11/17 04:44:00;;;;;;;8.23;2.00;;;11.50;99.90;;;;;;5073431;28;20365;-73
2022/11/17 04:46:27;;;;;;;5.32;2.22;;;11.50;99.90;;;;;;5094376;28;20089;-73
2022/11/17 04:48:54;;;;;;;3.78;2.28;;;11.50;99.90;;;;;;5093983;28;20031;-74
2022/11/17 04:51:20;;;;;;;4.88;1.98;;;11.60;99.90;;;;;;5113226;28;20435;-75
2022/11/17 04:53:46;;;;;;;9.20;2.63;;;11.50;99.90;;;;;;5114082;28;20020;-74
2022/11/17 04:56:12;;;;;;;5.97;2.38;;;11.50;99.90;;;;;;5105183;28;20024;-75
2022/11/17 04:58:38;;;;;;;4.40;2.22;;;11.50;99.90;;;;;;5093460;28;20093;-73
2022/11/17 05:01:13;;;;;;;5.30;2.40;;;11.40;99.90;;;;;;5093508;28;20093;-75
2022/11/17 05:03:48;;;;;;;8.43;2.53;;;11.40;99.90;;;;;;5093117;28;20444;-77
2022/11/17 05:06:17;;;;;;;14.15;3.75;;;11.30;99.90;;;;;;5091680;28;20100;-75
2022/11/17 05:08:43;;;;;;;10.05;3.00;;;11.20;99.90;;;;;;5093159;28;20050;-75
2022/11/17 05:13:54;;;;;;;4.93;2.55;;;11.20;99.90;;;;;;5093378;28;20114;-74
2022/11/17 05:19:07;;;;;;;6.80;3.30;;;11.20;99.90;;;;;;5093124;28;20027;-74
2022/11/17 05:21:33;;;;;;;10.82;3.08;;;11.10;99.90;;;;;;5093296;28;20023;-74
2022/11/17 05:23:59;;;;;;;5.68;2.35;;;11.10;99.90;;;;;;5093426;28;20020;-75
2022/11/17 05:26:30;;;;;;;9.75;3.00;;;11.10;99.90;;;;;;5091139;28;20490;-74
2022/11/17 05:28:57;;;;;;;9.67;3.20;;;11.10;99.90;;;;;;5093168;28;20472;-74
2022/11/17 05:31:24;;;;;;;9.60;2.80;;;11.10;99.90;;;;;;5102211;28;20492;-74
2022/11/17 05:33:50;;;;;;;7.13;2.15;;;11.00;99.90;;;;;;5093016;28;20020;-74
2022/11/17 05:36:16;;;;;;;11.68;2.67;;;11.10;99.90;;;;;;5092737;28;20077;-74
2022/11/17 05:38:41;;;;;;;6.85;2.03;;;11.00;99.90;;;;;;5093264;28;20035;-74
2022/11/17 05:41:07;;;;;;;13.00;2.25;;;11.00;99.90;;;;;;5093483;28;20333;-73
2022/11/17 05:43:33;;;;;;;5.78;2.55;;;11.00;99.90;;;;;;5105179;28;20092;-74
2022/11/17 05:45:58;;;;;;;3.63;2.10;;;11.00;99.90;;;;;;5110162;28;20072;-73
2022/11/17 05:48:24;;;;;;;8.20;2.83;;;11.00;99.90;;;;;;5092670;28;20052;-73
2022/11/17 05:50:54;;;;;;;23.75;3.72;;;11.00;99.90;;;;;;5088764;28;20025;-74
2022/11/17 05:53:21;;;;;;;5.07;2.25;;;11.00;99.90;;;;;;5071684;28;20426;-73
2022/11/17 05:55:47;;;;;;;7.60;3.05;;;11.00;99.90;;;;;;5072763;28;20021;-74
2022/11/17 05:58:24;;;;;;;8.52;2.55;;;11.00;99.90;;;;;;5104848;28;20114;-73
2022/11/17 06:00:51;;;;;;;5.07;2.33;;;11.00;99.90;;;;;;5112968;28;20047;-74
2022/11/17 06:03:22;;;;;;;7.25;2.30;;;11.00;99.90;;;;;;5095485;28;20109;-73
2022/11/17 06:05:47;;;;;;;4.38;2.13;;;11.00;99.90;;;;;;5092495;28;20057;-74
2022/11/17 06:08:13;;;;;;;8.15;2.78;;;11.00;99.90;;;;;;5101809;28;20051;-74
2022/11/17 06:10:39;;;;;;;4.25;2.22;;;11.00;99.90;;;;;;5113803;28;20375;-74
2022/11/17 06:13:04;;;;;;;3.45;2.75;;;11.00;99.90;;;;;;5113556;28;20360;-74
2022/11/17 06:15:30;;;;;;;5.20;2.75;;;11.00;99.90;;;;;;5110582;28;20420;-73
2022/11/17 06:18:04;;;;;;;9.77;2.83;;;11.00;99.90;;;;;;5090287;28;21848;-74
2022/11/17 06:20:43;;;;;;;6.53;2.75;;;11.00;99.90;;;;;;5091573;28;20024;-73
2022/11/17 06:23:10;;;;;;;6.40;2.40;;;11.00;99.90;;;;;;5093336;28;20020;-73
2022/11/17 06:25:37;;;;;;;3.38;1.98;;;11.00;99.90;;;;;;5092499;28;20056;-75
2022/11/17 06:28:08;;;;;;;4.88;2.42;;;11.00;99.90;;;;;;5097355;28;20468;-73
2022/11/17 06:30:35;;;;;;;6.22;2.50;;;11.00;99.90;;;;;;5116844;28;20076;-72
2022/11/17 06:33:02;;;;;;;5.40;2.90;;;11.00;99.90;;;;;;5096300;28;20089;-72
2022/11/17 06:35:32;;;;;;;6.15;2.67;;;11.00;99.90;;;;;;5096059;28;20035;-72
2022/11/17 06:37:58;;;;;;;7.05;3.25;;;11.00;99.90;;;;;;5095334;28;20038;-73
2022/11/17 06:40:24;;;;;;;6.95;3.03;;;11.00;99.90;;;;;;5096228;28;20099;-73
2022/11/17 06:43:02;;;;;;;6.90;3.03;;;11.00;99.90;;;;;;5096523;28;20384;-73
2022/11/17 06:45:32;;;;;;;6.85;2.78;;;11.00;99.90;;;;;;5100071;28;20015;-73
2022/11/17 06:47:58;;;;;;;6.47;3.40;;;11.10;99.90;;;;;;5111685;28;20016;-73
2022/11/17 06:50:24;;;;;;;6.13;3.35;;;11.10;99.90;;;;;;5096152;28;20082;-73
2022/11/17 06:52:50;;;;;;;6.03;3.00;;;11.10;99.90;;;;;;5096548;28;20402;-72
2022/11/17 06:55:15;;;;;;;4.47;2.40;;;11.10;99.90;;;;;;5116422;28;20045;-72
2022/11/17 06:57:41;;;;;;;6.70;2.75;;;11.10;99.90;;;;;;5115034;28;20051;-73
2022/11/17 07:00:07;;;;;;;8.05;3.05;;;11.10;99.90;;;;;;5102302;28;20455;-73
2022/11/17 07:02:33;;;;;;;8.45;2.58;;;11.10;99.90;;;;;;5098269;28;20035;-73
2022/11/17 07:04:58;;;;;;;6.38;3.00;;;11.20;99.90;;;;;;5094703;28;20024;-73
2022/11/17 07:07:24;;;;;;;8.43;3.15;;;11.20;99.90;;;;;;5093021;28;20042;-73
2022/11/17 07:09:49;;;;;;;7.32;3.33;;;11.20;99.90;;;;;;5096125;28;20081;-74
2022/11/17 07:12:15;;;;;;;6.15;2.85;;;11.20;99.90;;;;;;5096073;28;20032;-74
2022/11/17 07:14:41;;;;;;;9.77;3.13;;;11.20;99.90;;;;;;5094269;28;20109;-73
2022/11/17 07:17:07;;;;;;;7.43;3.17;;;11.20;99.90;;;;;;5107471;28;20619;-74
2022/11/17 07:19:32;;;;;;;10.02;3.17;;;11.20;99.90;;;;;;5115711;28;20027;-73
2022/11/17 07:21:58;;;;;;;8.07;2.83;;;11.20;99.90;;;;;;5114503;28;20065;-72
2022/11/17 07:24:23;;;;;;;8.23;3.10;;;11.20;99.90;;;;;;5114791;28;20026;-73
2022/11/17 07:26:49;;;;;;;7.80;3.60;;;11.20;99.90;;;;;;5104072;28;20040;-73
2022/11/17 07:29:14;;;;;;;9.63;4.53;;;11.20;99.90;;;;;;5095185;28;20024;-73
2022/11/17 07:31:40;;;;;;;11.07;3.35;;;11.20;99.90;;;;;;5097789;28;20044;-74
2022/11/17 07:34:05;;;;;;;6.88;3.72;;;11.20;99.90;;;;;;5094715;28;20670;-73
2022/11/17 07:36:32;;;;;;;8.18;3.35;;;11.20;99.90;;;;;;5094240;28;20383;-73
2022/11/17 07:38:57;;;;;;;7.80;2.67;;;11.20;99.90;;;;;;5095253;28;20023;-73
2022/11/17 07:41:23;;;;;;;16.65;4.32;;;11.20;99.90;;;;;;5094978;28;20038;-73
2022/11/17 07:43:49;;;;;;;9.32;2.50;;;11.20;99.90;;;;;;5090777;28;20091;-73
2022/11/17 07:46:14;;;;;;;11.65;2.55;;;11.10;99.90;;;;;;5084833;28;20073;-74
2022/11/17 07:48:41;;;;;;;7.38;2.10;;;11.10;99.90;;;;;;5082366;28;20016;-74
2022/11/17 07:51:07;;;;;;;7.40;2.40;;;11.10;99.90;;;;;;5087960;28;20021;-72
2022/11/17 07:53:33;;;;;;;10.73;2.42;;;11.10;99.90;;;;;;5094275;28;20038;-74
2022/11/17 07:56:08;;;;;;;5.78;2.25;;;11.10;99.90;;;;;;5094994;28;20039;-74
2022/11/17 07:58:34;;;;;;;6.03;2.40;;;11.00;99.90;;;;;;5093740;28;20036;-74
2022/11/17 08:01:07;;;;;;;8.75;2.38;;;11.00;99.90;;;;;;5095665;28;20125;-74
2022/11/17 08:03:33;;;;;;;7.97;2.40;;;11.00;99.90;;;;;;5107171;28;20154;-76
2022/11/17 08:06:03;;;;;;;6.70;2.40;;;11.00;99.90;;;;;;5074635;28;20028;-73
2022/11/17 08:08:28;;;;;;;5.43;2.05;;;11.00;99.90;;;;;;5087756;28;20074;-74
2022/11/17 08:10:54;;;;;;;5.95;2.50;;;10.90;99.90;;;;;;5093376;28;20051;-74
2022/11/17 08:13:20;;;;;;;4.40;2.20;;;10.90;99.90;;;;;;5091818;28;20456;-74
2022/11/17 08:15:45;;;;;;;6.55;2.42;;;10.90;99.90;;;;;;5090874;28;20377;-73
2022/11/17 08:18:11;;;;;;;8.57;2.28;;;10.90;99.90;;;;;;5092108;28;20028;-75
2022/11/17 08:20:36;;;;;;;5.25;2.30;;;10.90;99.90;;;;;;5092192;28;20016;-74
2022/11/17 08:23:02;;;;;;;9.30;2.95;;;10.90;99.90;;;;;;5100569;28;20016;-72
2022/11/17 08:25:28;;;;;;;7.85;2.75;;;10.80;99.90;;;;;;5092706;28;20051;-75
2022/11/17 08:27:55;;;;;;;7.55;2.85;;;10.80;99.90;;;;;;5096606;28;20073;-73
2022/11/17 08:30:21;;;;;;;6.20;2.28;;;10.80;99.90;;;;;;5093092;28;20036;-75
2022/11/17 08:32:48;;;;;;;7.80;3.67;;;10.80;99.90;;;;;;5113245;28;20035;-74
2022/11/17 08:35:15;;;;;;;8.93;2.88;;;10.80;99.90;;;;;;5115341;28;20019;-75
2022/11/17 08:37:41;;;;;;;8.10;3.58;;;10.80;99.90;;;;;;5106569;28;20027;-74
2022/11/17 08:40:07;;;;;;;8.13;2.58;;;10.80;99.90;;;;;;5092674;28;20043;-74
2022/11/17 08:42:33;;;;;;;6.85;2.80;;;10.80;99.90;;;;;;5093971;28;20019;-74
2022/11/17 08:44:59;;;;;;;9.55;3.40;;;10.80;99.90;;;;;;5095062;28;20486;-73
2022/11/17 08:47:24;;;;;;;9.00;3.13;;;10.80;99.90;;;;;;5110010;28;20038;-72
2022/11/17 08:49:50;;;;;;;3.45;2.42;;;10.90;99.90;;;;;;5079396;28;20028;-74
2022/11/17 08:52:16;;;;;;;6.72;2.83;;;10.80;99.90;;;;;;5090563;28;20024;-75
2022/11/17 08:54:41;;;;;;;8.73;2.92;;;10.80;99.90;;;;;;5080604;28;20127;-74
2022/11/17 08:57:07;;;;;;;8.40;2.80;;;10.80;99.90;;;;;;5086340;28;20172;-74
2022/11/17 08:59:32;;;;;;;5.32;2.40;;;10.80;99.90;;;;;;5093140;28;20447;-74
2022/11/17 09:01:58;;;;;;;4.30;2.47;;;10.80;99.90;;;;;;5100087;28;20030;-73
2022/11/17 09:04:24;;;;;;;5.43;2.08;;;10.80;99.90;;;;;;5099205;28;20020;-74
2022/11/17 09:06:49;;;;;;;6.07;2.67;;;10.70;99.90;;;;;;5093801;28;20054;-73
2022/11/17 09:09:15;;;;;;;4.60;2.60;;;10.80;99.90;;;;;;5093626;28;20337;-73
2022/11/17 09:11:41;;;;;;;3.00;2.20;;;10.70;99.90;;;;;;5093562;28;20027;-74
2022/11/17 09:14:06;;;;;;;6.07;2.20;;;10.70;99.90;;;;;;5091030;28;20451;-73
2022/11/17 09:16:32;;;;;;;8.60;2.40;;;10.70;99.90;;;;;;5091233;28;20016;-73
2022/11/17 09:18:57;;;;;;;9.30;2.85;;;10.60;99.90;;;;;;5091594;28;20027;-73
2022/11/17 09:21:27;;;;;;;7.95;1.70;;;10.70;99.90;;;;;;5089148;28;20043;-73
2022/11/17 09:23:53;;;;;;;5.30;1.63;;;10.60;99.90;;;;;;5093151;28;20463;-73
2022/11/17 09:26:19;;;;;;;4.53;1.73;;;10.60;99.90;;;;;;5092941;28;20456;-73
2022/11/17 09:28:45;;;;;;;4.85;1.65;;;10.60;99.90;;;;;;5092773;28;20050;-73
2022/11/17 09:31:19;;;;;;;10.43;2.40;;;10.60;99.90;;;;;;5095345;28;20129;-73
2022/11/17 09:33:45;;;;;;;4.63;1.58;;;10.60;99.90;;;;;;5106304;28;20039;-73
2022/11/17 09:36:13;;;;;;;7.03;2.00;;;10.60;99.90;;;;;;5089705;28;20020;-73
2022/11/17 09:38:39;;;;;;;7.35;1.90;;;10.50;99.90;;;;;;5073967;28;20063;-73
2022/11/17 09:41:25;;;;;;;2.83;1.20;;;10.50;99.90;;;;;;5092292;28;20020;-73
2022/11/17 09:43:53;;;;;;;11.13;2.70;;;10.50;99.90;;;;;;5086990;28;20040;-74
2022/11/17 09:46:31;;;;;;;7.78;1.77;;;10.50;99.90;;;;;;5089982;28;20098;-74
2022/11/17 09:49:37;;;;;;;6.65;1.95;;;10.50;99.90;;;;;;5079892;28;20460;-74
2022/11/17 09:52:21;;;;;;;5.10;1.30;;;10.40;99.90;;;;;;5089993;28;20035;-74
2022/11/17 09:54:56;;;;;;;11.18;1.60;;;10.40;99.90;;;;;;5086518;28;20051;-75
2022/11/17 09:57:29;;;;;;;5.93;1.73;;;10.40;99.90;;;;;;5086153;28;20025;-75
2022/11/17 10:00:19;;;;;;;3.50;1.15;;;10.40;99.90;;;;;;5088997;28;20047;-75
2022/11/17 10:02:49;;;;;;;6.72;1.63;;;10.50;99.90;;;;;;5089931;28;20054;-74
2022/11/17 10:05:32;;;;;;;7.55;1.70;;;10.50;99.90;;;;;;5090493;28;20020;-74
2022/11/17 10:08:03;;;;;;;7.53;1.10;;;10.50;99.90;;;;;;5097255;28;20023;-74
2022/11/17 10:10:47;;;;;;;8.90;1.30;;;10.50;99.90;;;;;;5090487;28;20063;-75
2022/11/17 10:13:38;;;;;;;3.35;1.38;;;10.50;99.90;;;;;;5080237;28;20019;-73
2022/11/17 10:16:10;;;;;;;3.28;1.23;;;10.50;99.90;;;;;;5090481;28;20460;-75
2022/11/17 10:18:37;;;;;;;2.33;1.13;;;10.50;99.90;;;;;;5097005;28;20494;-73
2022/11/17 10:21:05;;;;;;;3.75;1.08;;;10.50;99.90;;;;;;5092667;28;20269;-74
2022/11/17 10:23:50;;;;;;;3.35;1.20;;;10.50;99.90;;;;;;5087252;28;20446;-73
2022/11/17 10:26:15;;;;;;;7.68;1.80;;;10.60;99.90;;;;;;5103089;28;20407;-74
2022/11/17 10:28:41;;;;;;;3.45;1.00;;;10.60;99.90;;;;;;5090461;28;20032;-74
2022/11/17 10:31:22;;;;;;;4.95;1.50;;;10.60;99.90;;;;;;5094599;28;20032;-73
2022/11/17 10:33:51;;;;;;;6.37;1.67;;;10.60;99.90;;;;;;5087210;28;20017;-75
2022/11/17 10:36:27;;;;;;;7.13;2.13;;;10.60;99.90;;;;;;5079369;28;20268;-75
2022/11/17 10:39:03;;;;;;;5.47;1.80;;;10.60;99.90;;;;;;5106337;27;20059;-74
2022/11/17 10:41:50;;;;;;;4.65;1.92;;;10.60;99.90;;;;;;5081010;28;20032;-75
2022/11/17 10:44:29;;;;;;;5.25;2.20;;;10.60;99.90;;;;;;5079783;28;20036;-75
2022/11/17 10:47:00;;;;;;;3.85;1.48;;;10.60;99.90;;;;;;5091619;28;20019;-75
2022/11/17 10:49:39;;;;;;;5.95;1.85;;;10.60;99.90;;;;;;5087528;28;20081;-76
2022/11/17 10:52:33;;;;;;;4.82;1.65;;;10.60;99.90;;;;;;5095171;28;20344;-74
2022/11/17 10:55:27;;;;;;;2.67;1.05;;;10.50;99.90;;;;;;5079940;28;20059;-74
2022/11/17 10:58:04;;;;;;;6.22;1.65;;;10.50;99.90;;;;;;5076640;28;20021;-73
2022/11/17 11:00:35;;;;;;;9.00;2.00;;;10.50;99.90;;;;;;5081602;28;20099;-73
2022/11/17 11:03:19;;;;;;;5.78;1.42;;;10.50;99.90;;;;;;5079564;28;20073;-74
2022/11/17 11:05:56;;;;;;;6.47;1.45;;;10.50;99.90;;;;;;5090988;28;20024;-72
2022/11/17 11:08:26;;;;;;;4.90;1.80;;;10.50;99.90;;;;;;5092008;28;20031;-73
2022/11/17 11:10:53;;;;;;;8.32;2.40;;;10.50;99.90;;;;;;5082613;28;20016;-75
2022/11/17 11:13:49;;;;;;;5.45;1.38;;;10.50;99.90;;;;;;5091139;28;20027;-74
2022/11/17 11:16:14;;;;;;;5.88;1.92;;;10.50;99.90;;;;;;5089550;28;20448;-74
2022/11/17 11:18:40;;;;;;;3.53;1.70;;;10.50;99.90;;;;;;5076237;28;20059;-76
2022/11/17 11:21:22;;;;;;;5.68;1.30;;;10.50;99.90;;;;;;5088037;28;20020;-76
2022/11/17 11:23:53;;;;;;;7.43;1.85;;;10.50;99.90;;;;;;5094058;28;20028;-76
2022/11/17 11:26:46;;;;;;;9.98;1.92;;;10.50;99.90;;;;;;5094663;28;20672;-77
2022/11/17 11:29:42;;;;;;;3.00;1.58;;;10.50;99.90;;;;;;5095520;28;20020;-75
2022/11/17 11:32:34;;;;;;;6.05;2.08;;;10.40;99.90;;;;;;5085863;28;20089;-75
2022/11/17 11:35:02;;;;;;;4.15;1.73;;;10.40;99.90;;;;;;5092756;28;20024;-76
2022/11/17 11:37:58;;;;;;;7.70;2.58;;;10.40;99.90;;;;;;5090339;28;20046;-75
2022/11/17 11:40:30;;;;;;;9.57;2.45;;;10.40;99.90;;;;;;5083815;28;20020;-75
2022/11/17 11:43:40;;;;;;;5.95;1.52;;;10.40;99.90;;;;;;5089961;28;20448;-76
2022/11/17 11:46:21;;;;;;;3.25;1.67;;;10.30;99.90;;;;;;5057886;28;20032;-76
2022/11/17 11:48:48;;;;;;;2.95;1.17;;;10.30;99.90;;;;;;5090327;28;20367;-76
2022/11/17 11:51:19;;;;;;;4.10;1.08;;;10.30;99.90;;;;;;5087683;28;20035;-75
2022/11/17 11:54:01;;;;;;;7.13;1.55;;;10.30;99.90;;;;;;5087646;28;20016;-76
2022/11/17 11:56:33;;;;;;;2.17;1.00;;;10.30;99.90;;;;;;5093331;28;20059;-74
2022/11/17 11:59:17;;;;;;;11.27;1.85;;;10.30;99.90;;;;;;5095076;28;20043;-74
2022/11/17 12:02:09;;;;;;;3.20;1.00;;;10.30;99.90;;;;;;5093663;28;20024;-75
2022/11/17 12:04:38;;;;;;;3.55;0.90;;;10.30;99.90;;;;;;5074675;28;20016;-74
2022/11/17 12:07:16;;;;;;;4.60;1.17;;;10.30;99.90;;;;;;5093011;28;20051;-74
2022/11/17 12:10:06;;;;;;;3.25;0.88;;;10.30;99.90;;;;;;5091632;28;20460;-74
2022/11/17 12:12:39;;;;;;;1.63;0.65;;;10.30;99.90;;;;;;5094496;28;20028;-75
2022/11/17 12:15:09;;;;;;;3.88;1.25;;;10.30;99.90;;;;;;5091728;28;20043;-75
2022/11/17 12:17:36;;;;;;;6.78;1.30;;;10.40;99.90;;;;;;5093948;28;20024;-75
2022/11/17 12:20:23;;;;;;;4.30;1.42;;;10.40;99.90;;;;;;5093840;28;20016;-75
2022/11/17 12:23:18;;;;;;;7.13;1.60;;;10.50;99.90;;;;;;5093356;28;20142;-75
2022/11/17 12:25:46;;;;;;;5.78;1.30;;;10.60;99.90;;;;;;5080726;28;20028;-75
2022/11/17 12:28:34;;;;;;;4.93;1.05;;;10.60;99.90;;;;;;5092602;28;20027;-75
2022/11/17 12:31:26;;;;;;;4.70;0.98;;;10.60;99.90;;;;;;5093631;28;20051;-76
2022/11/17 12:33:51;;;;;;;5.53;1.48;;;10.70;99.90;;;;;;5089193;28;20028;-75
2022/11/17 12:36:23;;;;;;;2.97;1.08;;;10.70;99.90;;;;;;5092853;28;20103;-74
2022/11/17 12:38:53;;;;;;;3.40;1.27;;;10.70;99.90;;;;;;5091947;28;20036;-76
2022/11/17 12:41:46;;;;;;;9.88;1.40;;;10.70;99.90;;;;;;5094253;28;20224;-74
2022/11/17 12:44:31;;;;;;;5.28;1.50;;;10.70;99.90;;;;;;5091090;28;20524;-76
2022/11/17 12:47:21;;;;;;;5.03;1.20;;;10.70;99.90;;;;;;5090916;28;20032;-75
2022/11/17 12:50:17;;;;;;;4.93;1.33;;;10.60;99.90;;;;;;5070030;28;20127;-75
2022/11/17 12:53:02;;;;;;;4.47;1.40;;;10.60;99.90;;;;;;5099495;27;20420;-77
2022/11/17 12:55:32;;;;;;;4.03;1.30;;;10.60;99.90;;;;;;5092320;28;20337;-75
2022/11/17 12:58:23;;;;;;;1.10;1.00;;;10.50;99.90;;;;;;5089315;28;20468;-75
2022/11/17 13:01:13;;;;;;;3.33;1.35;;;10.50;99.90;;;;;;5085223;28;20103;-76
2022/11/17 13:04:05;;;;;;;2.63;1.15;;;10.50;99.90;;;;;;5074842;28;20061;-76
2022/11/17 13:06:31;;;;;;;7.53;1.80;;;10.40;99.90;;;;;;5090897;28;20031;-76
2022/11/17 13:08:59;;;;;;;5.15;1.23;;;10.40;99.90;;;;;;5085267;28;20034;-75
2022/11/17 13:11:26;;;;;;;6.55;1.80;;;10.40;99.90;;;;;;5092011;28;20031;-75
2022/11/17 13:14:09;;;;;;;8.20;2.22;;;10.40;99.90;;;;;;5091893;28;20084;-76
2022/11/17 13:16:42;;;;;;;6.07;1.73;;;10.40;99.90;;;;;;5090091;28;20464;-75
2022/11/17 13:19:31;;;;;;;5.72;1.58;;;10.40;99.90;;;;;;5089515;28;20040;-74
2022/11/17 13:22:19;;;;;;;4.63;1.50;;;10.40;99.90;;;;;;5092604;28;20019;-76
2022/11/17 13:24:47;;;;;;;3.75;1.40;;;10.30;99.90;;;;;;5081103;28;20035;-75
2022/11/17 13:27:27;;;;;;;4.82;1.88;;;10.30;99.90;;;;;;5089718;28;20422;-75
2022/11/17 13:30:11;;;;;;;5.78;1.60;;;10.30;99.90;;;;;;5086317;28;20035;-75
2022/11/17 13:32:41;;;;;;;5.30;1.65;;;10.20;99.90;;;;;;5099435;28;20027;-76
2022/11/17 13:35:35;;;;;;;3.40;1.80;;;10.20;99.90;;;;;;5087633;28;20043;-76
2022/11/17 13:38:05;;;;;;;7.03;1.48;;;10.20;99.90;;;;;;5091707;28;20027;-75